• Join FlightAware (Why Join?)
  • Login
  • US Flag 
05:16AM EDT


 

Airport Tracker/Info


-or-


 

Live Flight TrackerFlight Track Log ✈ JZA7983 ✈ 29-Apr-2013 ✈ CYYZ - KCVG

Flight Track Log - Related Links

Times and Time Zones

All times are in EDT time to prevent confusion due to time zone crossing. See the JZA7983 flight status page for this flight to view local times or setup timezone preferences in your user account.

Time Position Orientation Groundspeed Altitude Reporting Facility
EDT Latitude Longitude Course Direction KTS MPH feet Rate Location/Type
06:25PM 43.6667 -79.5833 360° North 20 23 500  Level Toronto Center
06:39PM 43.5483 -79.7266 216° Southwest  Level Estimated
06:39PM 43.6667 -79.5833 216° Southwest 180 207 1,100  Level Toronto Center
06:40PM 43.7167 -79.5167 44° Northeast 220 253 3,900 2,700 Climbing Toronto Center
06:41PM 43.7000 -79.4500 109° East 230 265 6,500 1,560 Climbing Toronto Center
06:42PM 43.6333 -79.4000 152° Southeast 280 322 7,100 300 Climbing Toronto Center
06:43PM 43.5667 -79.4000 180° South 260 299 7,100  Level Toronto Center
06:44PM 43.5000 -79.4500 209° Southwest 280 322 7,100 1,140 Level Toronto Center
06:45PM 43.4500 -79.5333 230° Southwest 280 322 9,400 2,520 Climbing Toronto Center
06:46PM 43.4000 -79.6333 235° Southwest 280 322 12,200 2,100 Climbing Toronto Center
06:47PM 43.3500 -79.7167 230° Southwest 320 368 13,700 1,680 Climbing Toronto Center
06:48PM 43.2833 -79.8333 232° Southwest 350 403 15,600 1,980 Climbing Toronto Center
06:49PM 43.2167 -79.9500 232° Southwest 360 414 17,700 1,920 Climbing Toronto Center
06:50PM 43.1667 -80.0667 240° Southwest 370 426 19,500 1,560 Climbing Toronto Center
06:51PM 43.1000 -80.1500 222° Southwest 380 437 20,900 1,440 Climbing Toronto Center
06:52PM 43.0333 -80.3000 239° Southwest 390 449 22,400 1,320 Climbing Toronto Center
06:53PM 42.9667 -80.4000 228° Southwest 390 449 23,600 1,200 Climbing Toronto Center
06:54PM 42.9000 -80.5167 232° Southwest 400 460 24,800 1,020 Climbing Toronto Center
06:55PM 42.8333 -80.6500 236° Southwest 410 472 25,700 900 Climbing Toronto Center
06:56PM 42.8039 -80.7189 240° Southwest 404 465 26,100 900 Climbing Cleveland Center
06:57PM 42.7331 -80.8406 232° Southwest 415 478 27,000 840 Climbing Cleveland Center
06:58PM 42.6306 -80.9247 211° Southwest 420 483 27,800 780 Climbing Cleveland Center
06:59PM 42.5261 -80.9972 207° Southwest 425 489 28,600 1,200 Climbing Cleveland Center
07:00PM 42.4194 -81.0725 208° Southwest 430 495 30,200 1,260 Climbing Cleveland Center
07:01PM 42.3172 -81.1447 208° Southwest 424 488 31,200 900 Climbing Cleveland Center
07:02PM 42.2147 -81.2139 207° Southwest 424 488 32,000 360 Climbing Cleveland Center
07:03PM 42.1078 -81.2883 207° Southwest 422 486 32,000  Level Cleveland Center
07:04PM 42.0094 -81.3544 207° Southwest 437 503 32,000  Level Cleveland Center
07:05PM 41.8942 -81.4339 207° Southwest 452 520 32,000  Level Cleveland Center
07:06PM 41.7811 -81.5103 207° Southwest 458 527 32,000  Level Cleveland Center
07:07PM 41.6700 -81.5867 207° Southwest 458 527 32,000  Level Cleveland Center
07:08PM 41.5567 -81.6625 207° Southwest 458 527 32,000  Level Cleveland Center
07:09PM 41.4475 -81.7383 208° Southwest 453 521 32,000  Level Cleveland Center
07:10PM 41.3364 -81.8108 206° Southwest 453 521 32,000  Level Cleveland Center
07:11PM 41.2272 -81.8836 207° Southwest 448 516 32,000  Level Cleveland Center
07:12PM 41.0414 -82.0061 206° Southwest 447 514 32,000  Level Indianapolis Center
07:13PM 40.9300 -82.0800 207° Southwest 445 512 32,000  Level Indianapolis Center
07:14PM 40.8186 -82.1531 206° Southwest 445 512 32,000  Level Indianapolis Center
07:15PM 40.7075 -82.2258 206° Southwest 444 511 32,000  Level Indianapolis Center
07:16PM 40.5972 -82.3003 207° Southwest 442 509 32,000 -60 Level Indianapolis Center
07:17PM 40.4833 -82.4139 217° Southwest 438 504 31,900 -780 Descending Indianapolis Center
07:18PM 40.3911 -82.5242 222° Southwest 444 511 30,500 -1,500 Descending Indianapolis Center
07:19PM 40.2967 -82.6381 223° Southwest 455 524 28,800 -1,740 Descending Indianapolis Center
07:21PM 40.1992 -82.7556 223° Southwest 451 519 27,000 -1,740 Descending Indianapolis Center
07:22PM 40.1044 -82.8675 222° Southwest 453 521 25,300 -1,740 Descending Indianapolis Center
07:23PM 40.0114 -82.9781 222° Southwest 448 516 23,500 -1,740 Descending Indianapolis Center
07:24PM 39.9356 -83.1053 232° Southwest 441 507 21,800 -1,680 Descending Indianapolis Center
07:25PM 39.8769 -83.2436 241° Southwest 434 499 20,100 -1,680 Descending Indianapolis Center
07:26PM 39.8222 -83.3736 241° Southwest 406 467 18,400 -1,740 Descending Indianapolis Center
07:27PM 39.7681 -83.5003 241° Southwest 384 442 16,600 -1,620 Descending Indianapolis Center
07:28PM 39.7167 -83.6194 241° Southwest 373 429 15,100 -1,560 Descending Indianapolis Center
07:29PM 39.6686 -83.7339 241° Southwest 360 414 13,500 -1,440 Descending Indianapolis Center
07:30PM 39.6208 -83.8456 241° Southwest 353 406 12,200 -1,140 Descending Indianapolis Center
07:31PM 39.5650 -83.9492 235° Southwest 348 400 11,200 -660 Descending Indianapolis Center
07:32PM 39.4972 -84.0425 227° Southwest 354 407 10,900 -480 Descending Indianapolis Center
07:33PM 39.4303 -84.1369 227° Southwest 352 405 10,300 -780 Descending Indianapolis Center
07:34PM 39.3725 -84.2206 228° Southwest 309 356 9,300 -840 Descending Indianapolis Center
07:35PM 39.3311 -84.3292 244° Southwest 287 330 8,600 -1,140 Descending Indianapolis Center
07:36PM 39.2958 -84.4206 244° Southwest 283 326 7,000 -840 Descending Indianapolis Center
07:37PM 39.2647 -84.5011 244° Southwest 256 295 6,900 -780 Descending Indianapolis Center
07:38PM 39.2364 -84.5778 245° Southwest 239 275 5,500 -1,980 Descending Indianapolis Center
07:39PM 39.2167 -84.6333 245° Southwest 231 266 3,300 -1,620 Descending Cincinnati TRACON
07:40PM 39.1667 -84.6667 207° Southwest 207 238 2,800 -600 Descending Cincinnati TRACON